Time;durP1;ratioP1;P1;durP2;ratioP2;P2;SDS_P1;SDS_P2;PMS_P1;PMS_P2;Temp;Humidity;BMP_temperature;BMP_pressure;BME280_temperature;BME280_humidity;BME280_pressure;Samples;Min_cycle;Max_cycle;Signal;HPM_P1;HPM_P2
2023/08/26 00:01:41;;;;;;;7.75;4.90;;;18.30;95.70;;;;;;4904854;29;20135;-87
2023/08/26 00:04:50;;;;;;;8.27;5.28;;;18.30;95.70;;;;;;4919358;29;20043;-90
2023/08/26 00:07:37;;;;;;;6.72;4.28;;;18.30;95.60;;;;;;4870079;29;20053;-88
2023/08/26 00:10:50;;;;;;;6.40;4.30;;;18.20;95.70;;;;;;4846768;29;20075;-93
2023/08/26 00:18:29;;;;;;;6.75;4.53;;;18.10;95.70;;;;;;4826407;29;20036;-91
2023/08/26 00:21:03;;;;;;;7.57;4.30;;;18.10;95.80;;;;;;4836634;29;20141;-90
2023/08/26 00:23:51;;;;;;;5.82;3.95;;;18.00;95.80;;;;;;4808291;29;20133;-86
2023/08/26 00:26:24;;;;;;;5.85;3.88;;;18.10;95.70;;;;;;4856377;29;20049;-88
2023/08/26 00:38:54;;;;;;;4.25;2.72;;;18.00;95.80;;;;;;4815967;29;20537;-93
2023/08/26 00:41:22;;;;;;;4.28;2.88;;;18.10;95.80;;;;;;4820437;29;20043;-90
2023/08/26 00:48:39;;;;;;;3.55;2.15;;;18.10;95.70;;;;;;4878552;29;20518;-91
2023/08/26 00:51:12;;;;;;;4.05;2.38;;;18.00;95.70;;;;;;4878444;29;20057;-96
2023/08/26 00:54:35;;;;;;;;;;;;;;;;;;;;;
2023/08/26 00:58:33;;;;;;;3.65;2.53;;;17.90;95.70;;;;;;4887383;29;20051;-89
2023/08/26 01:06:13;;;;;;;4.25;2.40;;;17.60;95.80;;;;;;4937682;28;20031;-92
2023/08/26 01:33:34;;;;;;;2.63;1.20;;;17.70;95.70;;;;;;4896160;29;20507;-86
2023/08/26 01:36:17;;;;;;;3.30;1.85;;;17.70;95.70;;;;;;4888870;29;20132;-88
2023/08/26 01:38:48;;;;;;;3.53;1.88;;;17.70;95.70;;;;;;4898765;29;20047;-82
2023/08/26 01:41:31;;;;;;;4.07;1.98;;;17.70;95.70;;;;;;4877055;29;20045;-85
2023/08/26 01:44:02;;;;;;;5.32;2.03;;;17.70;95.60;;;;;;4912131;29;20058;-86
2023/08/26 01:46:37;;;;;;;3.75;2.13;;;17.70;95.60;;;;;;4907781;29;20044;-89
2023/08/26 01:49:10;;;;;;;5.25;2.58;;;17.70;95.60;;;;;;4917573;29;20059;-84
2023/08/26 01:51:44;;;;;;;4.40;2.22;;;17.70;95.50;;;;;;4917919;29;20079;-90
2023/08/26 01:54:17;;;;;;;4.50;2.58;;;17.70;95.50;;;;;;4914580;29;20103;-88
2023/08/26 01:56:47;;;;;;;6.05;3.25;;;17.70;95.50;;;;;;4893995;29;20052;-87
2023/08/26 01:59:21;;;;;;;7.35;4.43;;;17.50;95.50;;;;;;4905899;29;20494;-86
2023/08/26 02:01:49;;;;;;;6.85;3.25;;;17.30;95.80;;;;;;4918557;29;20046;-83
2023/08/26 02:04:17;;;;;;;5.05;3.13;;;17.20;96.00;;;;;;4896318;29;20474;-85
2023/08/26 02:06:44;;;;;;;6.47;3.50;;;17.10;96.20;;;;;;4917789;29;20055;-83
2023/08/26 02:09:11;;;;;;;5.25;3.67;;;17.10;96.30;;;;;;4902264;29;20069;-85
2023/08/26 02:11:38;;;;;;;6.10;3.88;;;17.20;96.30;;;;;;4887034;29;20052;-84
2023/08/26 02:14:05;;;;;;;7.47;4.55;;;17.20;96.30;;;;;;4886477;29;20056;-84
2023/08/26 02:16:33;;;;;;;7.28;4.25;;;17.10;96.40;;;;;;4921247;29;20491;-84
2023/08/26 02:19:02;;;;;;;6.32;4.38;;;17.00;96.60;;;;;;4884523;29;20049;-84
2023/08/26 02:21:30;;;;;;;8.27;3.85;;;16.90;96.70;;;;;;4901802;29;20044;-83
2023/08/26 02:23:57;;;;;;;6.97;4.25;;;16.90;96.80;;;;;;4886394;29;20130;-84
2023/08/26 02:26:24;;;;;;;8.73;4.60;;;16.90;96.80;;;;;;4873883;29;20097;-85
2023/08/26 02:28:51;;;;;;;6.53;4.00;;;16.80;96.80;;;;;;4901158;29;20394;-85
2023/08/26 02:31:18;;;;;;;11.07;4.95;;;16.80;96.90;;;;;;4896398;29;20074;-83
2023/08/26 02:33:49;;;;;;;5.97;4.05;;;16.60;96.90;;;;;;4919362;29;20076;-85
2023/08/26 02:36:16;;;;;;;9.63;4.43;;;16.60;97.10;;;;;;4889915;29;20130;-84
2023/08/26 02:38:43;;;;;;;7.10;3.35;;;16.50;97.10;;;;;;4904806;29;20047;-83
2023/08/26 02:41:10;;;;;;;7.43;3.47;;;16.50;97.20;;;;;;4891884;29;20462;-84
2023/08/26 02:43:38;;;;;;;7.10;3.72;;;16.40;97.20;;;;;;4920295;29;20082;-83
2023/08/26 02:46:08;;;;;;;6.63;4.05;;;16.40;97.30;;;;;;4904518;29;20052;-84
2023/08/26 02:48:38;;;;;;;8.63;4.78;;;16.30;97.30;;;;;;4929968;29;20109;-84
2023/08/26 02:51:11;;;;;;;5.65;3.50;;;16.20;97.30;;;;;;4907912;29;20044;-84
2023/08/26 02:53:41;;;;;;;6.68;3.97;;;16.10;97.30;;;;;;4901773;29;20135;-84
2023/08/26 02:56:09;;;;;;;9.45;4.53;;;16.00;97.30;;;;;;4916961;29;20055;-85
2023/08/26 02:58:41;;;;;;;9.10;4.60;;;15.90;97.40;;;;;;4936190;29;20058;-84
2023/08/26 03:01:16;;;;;;;7.22;3.97;;;15.80;97.40;;;;;;4903277;29;20087;-85
2023/08/26 03:03:49;;;;;;;8.70;4.03;;;15.70;97.50;;;;;;4905164;29;20543;-84
2023/08/26 03:06:17;;;;;;;6.88;3.63;;;15.70;97.50;;;;;;4905784;29;20071;-85
2023/08/26 03:08:44;;;;;;;7.82;4.25;;;15.70;97.50;;;;;;4927203;29;20048;-84
2023/08/26 03:11:13;;;;;;;6.45;3.80;;;15.70;97.50;;;;;;4898644;29;20471;-84
2023/08/26 03:13:42;;;;;;;7.78;3.35;;;15.70;97.50;;;;;;4920598;29;20044;-85
2023/08/26 03:16:11;;;;;;;6.35;3.60;;;15.60;97.50;;;;;;4935913;29;20043;-84
2023/08/26 03:18:39;;;;;;;7.25;3.78;;;15.70;97.70;;;;;;4919561;29;20051;-85
2023/08/26 03:21:07;;;;;;;7.50;4.03;;;15.70;97.40;;;;;;4927534;29;20422;-85
2023/08/26 03:23:35;;;;;;;6.07;3.53;;;15.70;97.40;;;;;;4902802;29;20052;-85
2023/08/26 03:26:08;;;;;;;6.95;3.35;;;15.70;97.40;;;;;;4900994;29;20044;-84
2023/08/26 03:28:40;;;;;;;6.28;3.15;;;15.70;97.40;;;;;;4902211;29;20047;-84
2023/08/26 03:31:11;;;;;;;7.53;2.90;;;15.70;97.40;;;;;;4919465;29;20048;-85
2023/08/26 03:33:47;;;;;;;6.72;3.25;;;15.70;97.30;;;;;;4934287;29;20043;-84
2023/08/26 03:36:14;;;;;;;6.07;2.85;;;15.70;97.30;;;;;;4933833;29;20040;-83
2023/08/26 03:38:42;;;;;;;7.63;2.88;;;15.60;97.30;;;;;;4901773;29;20095;-84
2023/08/26 03:41:12;;;;;;;6.22;3.38;;;15.60;97.30;;;;;;4907093;29;20052;-84
2023/08/26 03:43:43;;;;;;;4.35;2.55;;;15.60;97.30;;;;;;4924298;29;20498;-84
2023/08/26 03:46:13;;;;;;;4.43;2.30;;;15.50;97.30;;;;;;4903812;29;20134;-83
2023/08/26 03:48:45;;;;;;;6.28;2.03;;;15.50;97.30;;;;;;4930241;29;20415;-84
2023/08/26 03:51:12;;;;;;;3.30;1.90;;;15.50;97.30;;;;;;4887505;29;20135;-83
2023/08/26 03:53:42;;;;;;;4.82;2.30;;;15.50;97.40;;;;;;4918757;29;20078;-83
2023/08/26 03:56:13;;;;;;;4.47;1.95;;;15.40;97.40;;;;;;4929666;29;20044;-85
2023/08/26 03:58:41;;;;;;;3.83;2.10;;;15.40;97.40;;;;;;4919128;29;20059;-85
2023/08/26 04:01:12;;;;;;;4.57;2.10;;;15.40;97.40;;;;;;4915345;29;20059;-85
2023/08/26 04:03:52;;;;;;;4.45;2.15;;;15.30;97.40;;;;;;4897987;29;20047;-83
2023/08/26 04:06:25;;;;;;;3.30;1.77;;;15.30;97.50;;;;;;4919569;29;20051;-83
2023/08/26 04:08:52;;;;;;;4.10;2.25;;;15.20;97.50;;;;;;4918548;29;20514;-83
2023/08/26 04:11:22;;;;;;;3.72;1.75;;;15.10;97.60;;;;;;4911089;29;20044;-83
2023/08/26 04:13:52;;;;;;;5.18;2.35;;;15.00;97.60;;;;;;4885109;29;20059;-83
2023/08/26 04:16:29;;;;;;;3.78;1.95;;;14.90;97.60;;;;;;4900984;29;20421;-82
2023/08/26 04:18:59;;;;;;;3.97;1.90;;;14.90;97.70;;;;;;4925518;29;20387;-83
2023/08/26 04:21:27;;;;;;;5.03;1.65;;;14.80;97.70;;;;;;4921161;29;20177;-83
2023/08/26 04:23:58;;;;;;;4.00;1.70;;;14.80;97.70;;;;;;4920999;29;20043;-83
2023/08/26 04:26:27;;;;;;;;;;;14.80;97.70;;;;;;4895264;29;20048;-84
2023/08/26 04:28:54;;;;;;;5.38;2.00;;;14.70;97.70;;;;;;4932154;29;20018;-83
2023/08/26 04:31:22;;;;;;;3.30;1.40;;;14.60;97.80;;;;;;4925010;29;20115;-84
2023/08/26 04:33:51;;;;;;;3.30;1.45;;;14.60;97.80;;;;;;4892252;29;20098;-84
2023/08/26 04:36:18;;;;;;;2.83;1.70;;;14.60;97.80;;;;;;4903078;29;20048;-84
2023/08/26 04:38:51;;;;;;;4.18;1.42;;;14.50;97.80;;;;;;4935819;29;20126;-83
2023/08/26 04:41:18;;;;;;;3.70;1.58;;;14.50;97.80;;;;;;4915764;29;20046;-84
2023/08/26 04:43:47;;;;;;;4.60;1.73;;;14.50;97.80;;;;;;4932459;29;20111;-84
2023/08/26 04:46:18;;;;;;;3.55;1.50;;;14.50;97.80;;;;;;4941967;29;20035;-84
2023/08/26 04:48:50;;;;;;;3.88;1.77;;;14.50;97.80;;;;;;4899439;29;20133;-84
2023/08/26 04:51:20;;;;;;;2.35;0.88;;;14.40;97.80;;;;;;4909356;29;20051;-85
2023/08/26 04:53:48;;;;;;;3.30;1.00;;;14.40;97.80;;;;;;4936027;29;20513;-84
2023/08/26 04:56:15;;;;;;;2.85;1.00;;;14.40;97.80;;;;;;4903914;29;20051;-84
2023/08/26 04:58:42;;;;;;;3.35;1.10;;;14.50;97.80;;;;;;4899185;29;20138;-84
2023/08/26 05:01:13;;;;;;;3.00;1.35;;;14.40;97.80;;;;;;4909633;29;20055;-85
2023/08/26 05:03:42;;;;;;;3.13;1.10;;;14.40;97.80;;;;;;4923218;29;20170;-85
2023/08/26 05:06:11;;;;;;;2.50;1.35;;;14.40;97.80;;;;;;4903472;29;20052;-85
2023/08/26 05:08:41;;;;;;;2.13;0.90;;;14.40;97.80;;;;;;4889939;29;20498;-85
2023/08/26 05:11:14;;;;;;;2.50;1.00;;;14.40;97.80;;;;;;4942160;29;20035;-84
2023/08/26 05:13:41;;;;;;;4.95;1.15;;;14.40;97.70;;;;;;4910102;29;20051;-84
2023/08/26 05:16:10;;;;;;;2.90;1.13;;;14.40;97.70;;;;;;4925527;29;20055;-86
2023/08/26 05:18:37;;;;;;;2.38;1.00;;;14.40;97.70;;;;;;4908059;29;20142;-84
2023/08/26 05:21:08;;;;;;;2.50;1.00;;;14.40;98.00;;;;;;4912455;29;20051;-84
2023/08/26 05:23:35;;;;;;;1.80;0.90;;;14.50;97.70;;;;;;4906165;29;20044;-84
2023/08/26 05:26:07;;;;;;;1.75;0.82;;;14.50;97.70;;;;;;4922368;29;20569;-82
2023/08/26 05:28:35;;;;;;;3.03;0.80;;;14.50;97.70;;;;;;4922465;29;20075;-85
2023/08/26 05:31:05;;;;;;;5.07;1.00;;;14.50;97.60;;;;;;4907022;28;20050;-85
2023/08/26 05:33:43;;;;;;;2.75;1.33;;;14.50;97.60;;;;;;4923016;29;20051;-85
2023/08/26 05:36:11;;;;;;;2.70;1.48;;;14.50;97.60;;;;;;4907811;29;20071;-85
2023/08/26 05:38:41;;;;;;;2.70;1.17;;;14.50;97.50;;;;;;4922207;29;20407;-85
2023/08/26 05:41:12;;;;;;;4.75;1.40;;;14.50;97.50;;;;;;4911204;29;20047;-86
2023/08/26 05:43:39;;;;;;;1.55;0.82;;;14.50;97.40;;;;;;4932491;29;20058;-86
2023/08/26 05:46:10;;;;;;;3.97;1.42;;;14.60;97.40;;;;;;4924256;29;20486;-85
2023/08/26 05:48:38;;;;;;;2.97;1.27;;;14.60;97.30;;;;;;4915608;29;20055;-84
2023/08/26 05:51:07;;;;;;;4.28;1.23;;;14.60;97.30;;;;;;4903388;29;20103;-84
2023/08/26 05:53:39;;;;;;;3.60;1.00;;;14.70;97.30;;;;;;4913288;29;20103;-84
2023/08/26 05:56:11;;;;;;;3.33;1.52;;;14.70;97.20;;;;;;4890312;29;20048;-85
2023/08/26 05:58:38;;;;;;;2.35;1.00;;;14.70;97.10;;;;;;4922067;29;20052;-87
2023/08/26 06:01:20;;;;;;;2.53;1.40;;;14.80;97.10;;;;;;4937077;29;20502;-86
2023/08/26 06:04:01;;;;;;;2.70;1.23;;;14.80;97.10;;;;;;4937852;29;20036;-85
2023/08/26 06:06:30;;;;;;;2.90;1.00;;;14.80;97.00;;;;;;4928014;29;20043;-84
2023/08/26 06:09:00;;;;;;;2.95;0.90;;;14.80;97.00;;;;;;4921339;29;20334;-86
2023/08/26 06:11:27;;;;;;;6.90;2.00;;;14.90;96.90;;;;;;4928536;29;20043;-86
2023/08/26 06:13:55;;;;;;;4.57;1.70;;;14.90;96.80;;;;;;4930840;29;20131;-86
2023/08/26 06:16:36;;;;;;;3.00;1.77;;;14.90;96.70;;;;;;4934579;29;20054;-86
2023/08/26 06:19:05;;;;;;;4.38;1.98;;;15.00;96.60;;;;;;4906053;29;20059;-85
2023/08/26 06:21:37;;;;;;;3.47;1.55;;;15.00;96.60;;;;;;4919730;29;20052;-85
2023/08/26 06:24:05;;;;;;;4.38;1.50;;;15.10;96.50;;;;;;4921582;29;20494;-86
2023/08/26 06:26:33;;;;;;;4.18;1.80;;;15.10;96.40;;;;;;4903984;29;20047;-86
2023/08/26 06:29:03;;;;;;;4.22;1.70;;;15.20;96.40;;;;;;4921212;29;20075;-85
2023/08/26 06:31:34;;;;;;;3.00;1.35;;;15.20;96.30;;;;;;4913345;29;20161;-84
2023/08/26 06:34:05;;;;;;;6.38;1.67;;;15.30;96.30;;;;;;4921373;29;20052;-85
2023/08/26 06:36:40;;;;;;;4.72;1.90;;;15.40;96.10;;;;;;4906686;29;20047;-84
2023/08/26 06:39:12;;;;;;;3.67;1.80;;;15.40;96.00;;;;;;4902715;29;20135;-85
2023/08/26 06:41:39;;;;;;;3.38;1.60;;;15.40;95.90;;;;;;4915522;29;20090;-84
2023/08/26 06:44:10;;;;;;;4.97;1.80;;;15.50;95.90;;;;;;4921154;29;20052;-84
2023/08/26 06:46:44;;;;;;;2.70;1.33;;;15.50;95.80;;;;;;4921255;29;20058;-84
2023/08/26 06:49:14;;;;;;;3.25;1.45;;;15.50;95.70;;;;;;4927706;29;20130;-85
2023/08/26 06:51:43;;;;;;;4.95;1.42;;;15.60;95.70;;;;;;4905768;29;20047;-87
2023/08/26 06:54:11;;;;;;;7.30;2.92;;;15.70;95.70;;;;;;4921134;29;20047;-86
2023/08/26 06:56:39;;;;;;;5.15;1.98;;;15.80;95.60;;;;;;4936475;29;20103;-86
2023/08/26 06:59:08;;;;;;;4.20;2.00;;;15.80;95.40;;;;;;4936691;29;20043;-86
2023/08/26 07:01:43;;;;;;;4.32;1.75;;;15.80;95.30;;;;;;4907643;29;20052;-86
2023/08/26 07:04:14;;;;;;;4.45;2.10;;;15.80;95.10;;;;;;4921027;29;20040;-86
2023/08/26 07:06:41;;;;;;;5.20;1.65;;;15.80;95.20;;;;;;4892259;29;20040;-87
2023/08/26 07:09:10;;;;;;;4.78;1.73;;;15.90;95.10;;;;;;4920826;29;20136;-87
2023/08/26 07:11:50;;;;;;;3.60;1.67;;;15.90;95.00;;;;;;4920791;29;20054;-87
2023/08/26 07:14:18;;;;;;;2.90;1.40;;;16.00;95.00;;;;;;4902891;29;20079;-87
2023/08/26 07:16:45;;;;;;;3.10;1.60;;;16.10;95.00;;;;;;4904706;29;20051;-87
2023/08/26 07:19:13;;;;;;;4.13;1.75;;;16.10;94.80;;;;;;4914234;29;20088;-86
2023/08/26 07:21:42;;;;;;;4.22;1.20;;;16.20;94.90;;;;;;4922755;29;20524;-86
2023/08/26 07:24:13;;;;;;;4.03;1.52;;;16.20;94.90;;;;;;4912363;29;20047;-86
2023/08/26 07:26:40;;;;;;;4.57;1.40;;;16.30;94.70;;;;;;4920511;29;20052;-86
2023/08/26 07:29:13;;;;;;;3.42;1.27;;;16.40;94.70;;;;;;4920694;29;20043;-87
2023/08/26 07:31:45;;;;;;;3.53;1.17;;;16.40;94.70;;;;;;4920448;29;20056;-87
2023/08/26 07:34:12;;;;;;;2.22;1.13;;;16.50;94.70;;;;;;4904652;29;20490;-87
2023/08/26 07:36:40;;;;;;;3.78;1.00;;;16.60;94.60;;;;;;4920129;29;20051;-87
2023/08/26 07:39:11;;;;;;;2.75;0.90;;;16.70;94.50;;;;;;4908437;29;20138;-87
2023/08/26 07:50:13;;;;;;;1.67;0.77;;;17.10;94.20;;;;;;4886548;29;20571;-92
2023/08/26 07:53:51;;;;;;;2.15;0.85;;;17.40;94.10;;;;;;4888649;29;20041;-89
2023/08/26 07:56:34;;;;;;;3.15;0.77;;;17.70;93.80;;;;;;4868745;29;20055;-85
2023/08/26 07:59:53;;;;;;;2.30;0.85;;;17.70;93.60;;;;;;4896586;29;20045;-90
2023/08/26 08:03:16;;;;;;;4.07;0.65;;;17.90;93.40;;;;;;4920428;29;20047;-89
2023/08/26 08:14:57;;;;;;;3.83;0.90;;;18.30;92.50;;;;;;4937406;29;20028;-91
2023/08/26 08:21:50;;;;;;;2.58;0.80;;;18.30;92.70;;;;;;4868495;29;20176;-91
2023/08/26 08:24:52;;;;;;;3.80;1.20;;;18.30;92.40;;;;;;4880541;29;20045;-91
2023/08/26 08:27:30;;;;;;;1.95;0.90;;;18.20;92.10;;;;;;4878113;29;20053;-88
2023/08/26 08:30:02;;;;;;;2.92;1.48;;;18.20;92.40;;;;;;4883657;29;20059;-89
2023/08/26 08:37:45;;;;;;;;;;;;;;;;;;;;;
2023/08/26 08:41:04;;;;;;;3.08;0.70;;;18.40;91.90;;;;;;4781527;29;20134;-87
2023/08/26 08:43:43;;;;;;;2.45;1.10;;;18.50;91.90;;;;;;4864087;29;20049;-88
2023/08/26 08:46:19;;;;;;;4.30;0.88;;;18.70;91.70;;;;;;4883181;29;20052;-90
2023/08/26 08:48:48;;;;;;;2.65;0.70;;;18.80;91.60;;;;;;4927833;29;20052;-89
2023/08/26 08:52:10;;;;;;;1.77;0.65;;;18.90;91.70;;;;;;4917791;29;20044;-88
2023/08/26 08:55:21;;;;;;;1.13;0.60;;;19.10;91.50;;;;;;4823213;29;20078;-92
2023/08/26 09:02:46;;;;;;;1.95;0.60;;;19.00;90.80;;;;;;4854696;29;20335;-89
2023/08/26 09:05:26;;;;;;;1.88;0.50;;;19.00;91.00;;;;;;4862894;29;20054;-86
2023/08/26 09:09:20;;;;;;;1.60;0.55;;;19.20;91.10;;;;;;4902793;29;20135;-86
2023/08/26 09:15:10;;;;;;;2.40;0.73;;;19.60;90.50;;;;;;4898731;29;20103;-87
2023/08/26 09:17:46;;;;;;;3.17;0.50;;;19.80;90.60;;;;;;4888657;29;20048;-90
2023/08/26 09:20:22;;;;;;;2.03;0.40;;;20.10;90.40;;;;;;4919533;29;20052;-87
2023/08/26 09:23:41;;;;;;;3.53;0.50;;;20.30;90.00;;;;;;4892027;29;20083;-90
2023/08/26 09:30:49;;;;;;;2.50;0.70;;;20.80;89.40;;;;;;4842411;29;20044;-93
2023/08/26 09:35:39;;;;;;;;;;;;;;;;;;;;;
2023/08/26 09:38:31;;;;;;;1.50;0.40;;;21.10;88.30;;;;;;4801624;29;20055;-89
2023/08/26 09:41:19;;;;;;;2.10;0.57;;;21.30;88.50;;;;;;4774171;30;20075;-88
2023/08/26 09:44:53;;;;;;;3.38;0.70;;;21.50;86.90;;;;;;4847848;29;20155;-89
2023/08/26 09:48:07;;;;;;;;;;;;;;;;;;;;;
2023/08/26 09:50:39;;;;;;;;;;;21.50;86.10;;;;;;4872222;29;20056;-89
2023/08/26 09:53:31;;;;;;;2.55;0.47;;;21.40;85.50;;;;;;4855783;29;20283;-90
2023/08/26 10:14:01;;;;;;;;;;;;;;;;;;;;;
2023/08/26 10:20:44;;;;;;;1.05;0.30;;;20.00;87.00;;;;;;4843008;29;20054;-90
2023/08/26 10:27:34;;;;;;;1.88;0.60;;;20.90;85.10;;;;;;4915433;29;20487;-95
2023/08/26 10:30:02;;;;;;;2.75;0.47;;;21.40;83.00;;;;;;4905169;29;20498;-93
2023/08/26 10:33:39;;;;;;;2.33;0.40;;;21.40;82.20;;;;;;4900604;29;20116;-92
2023/08/26 10:45:14;;;;;;;3.10;0.57;;;22.50;76.60;;;;;;4874387;29;20048;-93
2023/08/26 10:52:59;;;;;;;1.58;0.50;;;21.70;77.00;;;;;;4914097;29;20044;-92
2023/08/26 10:56:31;;;;;;;;;;;;;;;;;;;;;
2023/08/26 11:04:36;;;;;;;;;;;;;;;;;;;;;
2023/08/26 11:11:33;;;;;;;0.40;0.20;;;21.50;80.10;;;;;;4881694;29;20586;-89
2023/08/26 11:14:13;;;;;;;1.05;0.30;;;21.50;78.80;;;;;;4883418;29;20057;-93
2023/08/26 11:17:30;;;;;;;2.88;0.57;;;21.40;78.80;;;;;;4878798;29;20060;-92
2023/08/26 11:28:57;;;;;;;0.75;0.30;;;21.40;79.20;;;;;;4833358;29;20038;-90
2023/08/26 11:36:31;;;;;;;0.63;0.20;;;22.50;77.60;;;;;;4855156;29;20537;-93
2023/08/26 11:44:07;;;;;;;1.23;0.30;;;24.00;74.40;;;;;;4825120;29;20055;-90
2023/08/26 11:51:57;;;;;;;;;;;;;;;;;;;;;
2023/08/26 11:55:28;;;;;;;1.27;0.30;;;24.70;72.90;;;;;;4847237;29;20054;-93
2023/08/26 12:02:26;;;;;;;1.52;0.20;;;24.60;73.40;;;;;;4903100;29;20032;-91
2023/08/26 12:05:52;;;;;;;;;;;;;;;;;;;;;
2023/08/26 12:08:52;;;;;;;0.68;0.25;;;24.70;72.80;;;;;;4931037;29;20032;-90
2023/08/26 12:11:20;;;;;;;1.63;0.22;;;24.30;73.60;;;;;;4896549;29;20047;-89
2023/08/26 12:14:31;;;;;;;0.87;0.23;;;24.00;72.90;;;;;;4912905;29;20103;-92
2023/08/26 12:18:09;;;;;;;0.65;0.20;;;23.60;73.80;;;;;;4897974;29;20055;-93
2023/08/26 12:20:49;;;;;;;1.10;0.30;;;23.20;74.10;;;;;;4880208;29;20048;-96
2023/08/26 12:24:21;;;;;;;;;;;;;;;;;;;;;
2023/08/26 12:28:12;;;;;;;;;;;;;;;;;;;;;
2023/08/26 12:31:47;;;;;;;0.60;0.17;;;22.90;74.40;;;;;;4796092;29;20062;-94
2023/08/26 12:35:01;;;;;;;1.30;0.22;;;23.20;74.20;;;;;;4810790;29;20056;-95
2023/08/26 12:41:53;;;;;;;1.00;0.20;;;22.90;72.20;;;;;;4816366;29;20042;-91
2023/08/26 12:44:49;;;;;;;0.95;0.32;;;22.60;73.80;;;;;;4826377;29;20050;-94
2023/08/26 12:47:55;;;;;;;0.65;0.15;;;22.70;73.50;;;;;;4829720;29;20041;-95
2023/08/26 12:56:39;;;;;;;0.98;0.20;;;22.90;72.30;;;;;;4736938;30;20052;-93
2023/08/26 13:08:11;;;;;;;0.93;0.20;;;22.80;70.40;;;;;;4797287;29;19958;-91
2023/08/26 13:15:18;;;;;;;0.60;0.22;;;22.90;70.00;;;;;;4841917;29;20524;-96
2023/08/26 13:17:46;;;;;;;0.95;0.15;;;23.00;69.60;;;;;;4828239;29;20052;-92
2023/08/26 13:20:21;;;;;;;1.33;0.20;;;22.90;70.10;;;;;;4949158;29;20040;-94
2023/08/26 13:23:02;;;;;;;0.57;0.20;;;22.80;70.30;;;;;;4924062;28;20131;-91
2023/08/26 13:25:34;;;;;;;0.65;0.20;;;22.70;71.00;;;;;;4932988;29;20442;-91
2023/08/26 13:28:07;;;;;;;0.85;0.30;;;22.70;69.90;;;;;;4917394;29;20401;-95
2023/08/26 13:39:59;;;;;;;1.30;0.30;;;22.70;69.30;;;;;;4918243;29;20036;-92
2023/08/26 13:42:55;;;;;;;1.05;0.40;;;22.30;69.40;;;;;;4907448;29;20447;-96
2023/08/26 14:00:41;;;;;;;2.03;0.30;;;21.80;71.50;;;;;;4920432;29;20028;-93
2023/08/26 14:03:18;;;;;;;0.60;0.30;;;21.60;72.10;;;;;;4889677;29;20409;-91
2023/08/26 14:05:51;;;;;;;0.85;0.40;;;21.40;72.60;;;;;;4903511;29;20055;-89
2023/08/26 14:08:30;;;;;;;0.65;0.30;;;21.30;72.70;;;;;;4920441;29;20044;-93
2023/08/26 14:10:57;;;;;;;1.05;0.32;;;21.20;72.90;;;;;;4907731;29;20076;-92
2023/08/26 14:13:35;;;;;;;2.30;0.47;;;21.10;73.00;;;;;;4904729;29;20064;-88
2023/08/26 14:16:05;;;;;;;1.58;0.40;;;21.10;72.60;;;;;;4911095;29;20078;-93
2023/08/26 14:18:33;;;;;;;0.98;0.20;;;21.10;72.80;;;;;;4903359;29;20127;-92
2023/08/26 14:22:11;;;;;;;;;;;;;;;;;;;;;
2023/08/26 14:25:11;;;;;;;0.82;0.30;;;21.20;73.30;;;;;;4867664;29;20061;-93
2023/08/26 14:27:50;;;;;;;1.33;0.50;;;21.20;73.20;;;;;;4885560;29;20052;-90
2023/08/26 14:31:22;;;;;;;0.90;0.30;;;21.00;73.60;;;;;;4849485;29;20049;-95
2023/08/26 14:39:25;;;;;;;0.60;0.22;;;20.70;74.90;;;;;;4859812;29;20114;-86
2023/08/26 14:47:00;;;;;;;0.55;0.20;;;20.90;75.10;;;;;;4814423;29;20206;-89
2023/08/26 14:49:29;;;;;;;0.40;0.10;;;22.60;72.10;;;;;;4980913;23;20064;-88
2023/08/26 14:52:05;;;;;;;0.38;0.20;;;22.70;71.90;;;;;;4884530;29;20095;-90
2023/08/26 14:54:50;;;;;;;0.40;0.20;;;22.50;72.10;;;;;;4895089;29;20053;-96
2023/08/26 14:57:18;;;;;;;0.70;0.20;;;22.20;73.00;;;;;;4871907;29;20105;-89
2023/08/26 15:00:13;;;;;;;1.20;0.30;;;22.00;73.60;;;;;;4890534;29;20143;-90
2023/08/26 15:03:22;;;;;;;0.88;0.20;;;21.90;74.20;;;;;;4881241;29;20044;-90
2023/08/26 15:06:30;;;;;;;1.52;0.20;;;21.80;74.60;;;;;;4855849;29;20049;-96
2023/08/26 15:09:23;;;;;;;1.05;0.30;;;21.80;74.90;;;;;;4861815;29;20082;-93
2023/08/26 15:12:07;;;;;;;1.25;0.30;;;21.70;75.00;;;;;;4862664;29;20052;-89
2023/08/26 15:18:00;;;;;;;0.60;0.20;;;21.80;75.50;;;;;;4857058;29;20081;-92
2023/08/26 15:20:37;;;;;;;0.22;0.13;;;22.50;74.30;;;;;;4865096;29;20059;-91
2023/08/26 15:23:23;;;;;;;0.52;0.20;;;22.50;74.10;;;;;;4818498;29;20081;-92
2023/08/26 15:26:40;;;;;;;1.27;0.20;;;22.20;74.70;;;;;;4831092;29;20054;-90
2023/08/26 15:29:14;;;;;;;1.25;0.30;;;21.80;75.60;;;;;;4863405;29;20085;-88
2023/08/26 15:36:12;;;;;;;1.85;0.50;;;21.20;76.80;;;;;;4874181;29;20136;-89
2023/08/26 15:39:15;;;;;;;1.25;0.38;;;20.90;77.20;;;;;;4845771;29;20092;-94
2023/08/26 15:48:19;;;;;;;2.00;0.63;;;19.30;80.40;;;;;;5142709;23;19922;-90
2023/08/26 15:50:54;;;;;;;2.17;0.60;;;18.80;82.20;;;;;;4906777;29;20130;-90
2023/08/26 15:57:03;;;;;;;2.22;0.60;;;18.40;83.90;;;;;;4915471;29;20115;-90
2023/08/26 16:05:52;;;;;;;1.45;0.30;;;18.00;85.00;;;;;;5000814;23;20406;-93
2023/08/26 16:08:20;;;;;;;1.02;0.40;;;18.10;85.10;;;;;;4903390;29;20059;-90
2023/08/26 16:10:49;;;;;;;1.10;0.50;;;18.20;85.40;;;;;;4902615;29;20104;-89
2023/08/26 16:13:17;;;;;;;0.95;0.45;;;18.20;85.50;;;;;;4889444;29;20054;-90
2023/08/26 16:15:44;;;;;;;2.17;0.45;;;18.10;86.00;;;;;;4920823;29;20052;-90
2023/08/26 16:18:12;;;;;;;2.05;0.60;;;18.00;86.90;;;;;;4905271;29;20060;-92
2023/08/26 16:21:00;;;;;;;2.30;0.73;;;17.80;87.50;;;;;;4937114;29;20069;-94
2023/08/26 16:23:34;;;;;;;1.17;0.70;;;17.60;89.00;;;;;;4888036;29;20052;-93
2023/08/26 16:26:02;;;;;;;1.80;0.50;;;17.40;89.10;;;;;;4901945;29;20048;-92
2023/08/26 16:28:29;;;;;;;1.55;0.65;;;17.40;89.30;;;;;;4901762;29;20055;-91
2023/08/26 16:31:02;;;;;;;1.58;0.50;;;17.60;89.10;;;;;;4883776;29;20052;-96
2023/08/26 16:41:54;;;;;;;1.40;0.50;;;18.90;86.90;;;;;;4860525;29;20055;-93
2023/08/26 16:50:29;;;;;;;2.08;0.50;;;19.00;87.40;;;;;;4857849;29;20081;-94
2023/08/26 16:52:56;;;;;;;1.83;0.47;;;19.00;87.30;;;;;;4861930;29;20189;-92
2023/08/26 16:55:27;;;;;;;1.30;0.52;;;18.80;88.00;;;;;;4854528;29;20056;-89
2023/08/26 16:57:57;;;;;;;2.17;1.20;;;18.70;88.50;;;;;;4878206;29;20525;-91
2023/08/26 17:00:38;;;;;;;2.08;0.70;;;18.60;88.80;;;;;;4854821;29;20508;-93
2023/08/26 17:03:11;;;;;;;2.30;0.85;;;18.50;89.10;;;;;;4860202;29;20050;-96
2023/08/26 17:20:05;;;;;;;2.30;1.10;;;18.40;89.30;;;;;;4885053;29;20128;-87
2023/08/26 17:22:43;;;;;;;3.80;1.10;;;18.30;89.80;;;;;;4869378;29;20053;-88
2023/08/26 17:25:36;;;;;;;;;;;;;;;;;;;;;
2023/08/26 17:33:12;;;;;;;1.42;0.75;;;18.10;90.20;;;;;;4905864;29;20043;-91
2023/08/26 18:00:24;;;;;;;1.10;0.57;;;18.10;90.20;;;;;;2671777;23;20330;-89
2023/08/26 18:02:52;;;;;;;0.95;0.45;;;18.10;90.30;;;;;;4850028;29;20113;-88
2023/08/26 18:09:27;;;;;;;1.23;0.43;;;18.10;90.50;;;;;;4862921;29;20033;-92
2023/08/26 18:12:19;;;;;;;1.42;0.55;;;18.00;90.40;;;;;;4833345;29;20050;-91
2023/08/26 18:19:26;;;;;;;0.88;0.28;;;18.00;90.50;;;;;;4847036;29;20033;-95
2023/08/26 18:27:32;;;;;;;;;;;;;;;;;;;;;
2023/08/26 18:40:16;;;;;;;0.68;0.20;;;17.60;90.70;;;;;;4760492;30;20047;-94
2023/08/26 18:43:19;;;;;;;1.15;0.30;;;17.50;90.90;;;;;;4733464;30;20117;-89
2023/08/26 18:46:20;;;;;;;0.88;0.30;;;17.50;91.00;;;;;;4772229;30;20047;-94
2023/08/26 18:49:12;;;;;;;1.02;0.40;;;17.40;91.00;;;;;;4788688;29;20119;-93
2023/08/26 19:00:12;;;;;;;;;;;;;;;;;;;;;
2023/08/26 19:11:53;;;;;;;1.10;0.20;;;17.00;91.70;;;;;;4869392;29;20053;-91
2023/08/26 19:14:26;;;;;;;0.90;0.30;;;16.90;91.80;;;;;;4864611;29;20159;-88
2023/08/26 19:16:53;;;;;;;0.47;0.10;;;16.80;91.90;;;;;;4850872;29;20076;-90
2023/08/26 19:19:21;;;;;;;0.40;0.20;;;16.80;91.90;;;;;;4860897;29;20135;-92
2023/08/26 19:21:57;;;;;;;1.60;0.20;;;16.80;92.00;;;;;;4856099;29;20097;-91
2023/08/26 19:30:22;;;;;;;0.57;0.20;;;16.80;92.10;;;;;;4874428;29;20155;-96
2023/08/26 19:33:23;;;;;;;0.65;0.20;;;16.70;92.10;;;;;;4890662;29;20507;-91
2023/08/26 19:40:29;;;;;;;0.85;0.20;;;16.70;92.20;;;;;;4899692;29;20521;-92
2023/08/26 19:42:59;;;;;;;1.15;0.30;;;16.70;92.20;;;;;;4894726;29;20115;-92
2023/08/26 19:45:39;;;;;;;0.85;0.30;;;16.70;92.20;;;;;;4883479;29;20049;-89
2023/08/26 19:48:12;;;;;;;0.43;0.30;;;16.70;92.20;;;;;;4886914;29;20085;-94
2023/08/26 19:50:54;;;;;;;0.60;0.40;;;16.70;92.20;;;;;;4878079;29;20048;-92
2023/08/26 19:53:21;;;;;;;0.68;0.30;;;16.80;92.30;;;;;;4884098;29;20070;-93
2023/08/26 19:56:09;;;;;;;;;;;;;;;;;;;;;
2023/08/26 19:58:42;;;;;;;0.98;0.40;;;16.80;92.30;;;;;;4889104;29;20066;-91
2023/08/26 20:01:11;;;;;;;0.68;0.30;;;16.70;92.40;;;;;;4868271;29;20064;-91
2023/08/26 20:04:18;;;;;;;0.80;0.30;;;16.70;92.40;;;;;;4877280;29;20052;-95
2023/08/26 20:06:48;;;;;;;1.40;0.30;;;16.70;92.40;;;;;;4913045;29;20052;-89
2023/08/26 20:09:28;;;;;;;0.52;0.30;;;16.70;92.50;;;;;;4883598;29;20051;-90